Burewala Weather



Burewala's Current Weather

Temprature 8.51o clear sky

clear sky

Rain: 0 %

Min Temprature8.51o
Max Temprature8.51o
Humidity58
Wind Speed3.24 m/h
Sun Rise07:05:42
Sun Set17:33:28
Current Time: 18-Jan-2021 06:30:13
Lat/Lon: 30.1667, 72.65




Burewala's Geo Location



Burewala's Weather Forecast

Time Overall Temp Min Temp Max Temp Humidity Wind Speed Rain
18-Jan-2021 (Mon)
08:00:00 clear sky 9.430 9.430 9.550 54 3.09 m/h 0 %
11:00:00 clear sky 16.460 16.460 18.430 34 3.52 m/h 0 %
14:00:00 clear sky 21.960 21.960 22.820 22 4.03 m/h 0 %
17:00:00 clear sky 19.670 19.670 19.750 25 3.11 m/h 0 %
20:00:00 clear sky 14.310 14.310 14.310 36 2.82 m/h 0 %
23:00:00 clear sky 12.460 12.460 12.460 41 2.64 m/h 0 %
19-Jan-2021 (Tue)
02:00:00 clear sky 11.030 11.030 11.030 45 2.59 m/h 0 %
05:00:00 clear sky 9.840 9.840 9.840 50 1.83 m/h 0 %
08:00:00 clear sky 10.810 10.810 10.810 47 1.54 m/h 0 %
11:00:00 clear sky 19.650 19.650 19.650 26 1.67 m/h 0 %
14:00:00 clear sky 23.680 23.680 23.680 19 2.52 m/h 0 %
17:00:00 clear sky 20.930 20.930 20.930 22 1.64 m/h 0 %
20:00:00 clear sky 15.600 15.600 15.600 31 1.93 m/h 0 %
23:00:00 clear sky 13.360 13.360 13.360 37 1.4 m/h 0 %
20-Jan-2021 (Wed)
02:00:00 clear sky 12.410 12.410 12.410 40 1.56 m/h 0 %
05:00:00 clear sky 11.070 11.070 11.070 43 1.31 m/h 0 %
08:00:00 clear sky 12.230 12.230 12.230 40 0.98 m/h 0 %
11:00:00 clear sky 21.570 21.570 21.570 22 1.7 m/h 0 %
14:00:00 clear sky 25.480 25.480 25.480 16 2.67 m/h 0 %
17:00:00 clear sky 22.250 22.250 22.250 20 1.59 m/h 0 %
20:00:00 clear sky 16.750 16.750 16.750 28 1.82 m/h 0 %
23:00:00 clear sky 14.460 14.460 14.460 33 0.98 m/h 0 %
21-Jan-2021 (Thu)
02:00:00 clear sky 13.430 13.430 13.430 35 0.24 m/h 0 %
05:00:00 clear sky 12.470 12.470 12.470 37 1.03 m/h 0 %
08:00:00 clear sky 13.730 13.730 13.730 34 0.13 m/h 0 %
11:00:00 clear sky 23.280 23.280 23.280 19 1.35 m/h 0 %
14:00:00 clear sky 26.930 26.930 26.930 15 2.99 m/h 0 %
17:00:00 clear sky 23.890 23.890 23.890 18 2.72 m/h 0 %
20:00:00 clear sky 18.660 18.660 18.660 25 3.49 m/h 0 %
23:00:00 clear sky 16.590 16.590 16.590 29 2.46 m/h 0 %
22-Jan-2021 (Fri)
02:00:00 clear sky 15.250 15.250 15.250 31 3.08 m/h 0 %
05:00:00 clear sky 13.930 13.930 13.930 34 3.45 m/h 0 %
08:00:00 clear sky 14.030 14.030 14.030 34 2.93 m/h 0 %
11:00:00 clear sky 23.890 23.890 23.890 18 3.52 m/h 0 %
14:00:00 clear sky 28.030 28.030 28.030 14 3.29 m/h 0 %
17:00:00 few clouds 24.830 24.830 24.830 19 2.34 m/h 0 %
20:00:00 broken clouds 19.450 19.450 19.450 32 1.2 m/h 0 %
23:00:00 overcast clouds 17.680 17.680 17.680 34 0.95 m/h 0 %
23-Jan-2021 (Sat)
02:00:00 broken clouds 14.660 14.660 14.660 34 3.52 m/h 0 %
05:00:00 broken clouds 13.340 13.340 13.340 36 5.19 m/h 0 %


Burewala's Tourist Spots

Historical Places in Burewala

Famous Cities (60)